createdAt,value
2018-01-10T00:00:37.718Z,20.01
2018-01-10T00:01:37.994Z,20.01
2018-01-10T00:02:38.133Z,20.01
2018-01-10T00:03:38.118Z,20.02
2018-01-10T00:04:38.523Z,20.01
2018-01-10T00:05:38.558Z,20
2018-01-10T00:06:38.672Z,20
2018-01-10T00:07:37.557Z,19.99
2018-01-10T00:08:38.219Z,19.98
2018-01-10T00:09:38.197Z,19.98
2018-01-10T00:10:38.059Z,19.99
2018-01-10T00:11:39.580Z,19.99
2018-01-10T00:12:37.940Z,20
2018-01-10T00:13:37.617Z,20.01
2018-01-10T00:14:38.496Z,20.02
2018-01-10T00:15:38.167Z,20.04
2018-01-10T00:16:38.479Z,20.02
2018-01-10T00:17:38.194Z,20.04
2018-01-10T00:18:41.265Z,20.03
2018-01-10T00:19:37.734Z,20
2018-01-10T00:20:37.589Z,20.05
2018-01-10T00:21:40.154Z,20.03
2018-01-10T00:22:37.823Z,20.02
2018-01-10T00:23:40.372Z,20.01
2018-01-10T00:24:38.668Z,20.02
2018-01-10T00:25:39.147Z,20.01
2018-01-10T00:26:37.630Z,19.99
2018-01-10T00:27:38.693Z,19.99
2018-01-10T00:28:37.756Z,19.99
2018-01-10T00:29:37.998Z,19.99
2018-01-10T00:30:38.107Z,19.99
2018-01-10T00:31:38.907Z,19.99
2018-01-10T00:32:38.006Z,20.02
2018-01-10T00:33:37.818Z,20.01
2018-01-10T00:34:37.626Z,20.02
2018-01-10T00:35:37.738Z,20.03
2018-01-10T00:36:38.658Z,20.04
2018-01-10T00:37:39.123Z,20.03
2018-01-10T00:38:42.071Z,20.03
2018-01-10T00:39:37.657Z,20.03
2018-01-10T00:40:37.654Z,20.04
2018-01-10T00:41:37.767Z,20.02
2018-01-10T00:42:37.637Z,20.03
2018-01-10T00:43:40.628Z,20.01
2018-01-10T00:44:38.159Z,20.01
2018-01-10T00:45:37.699Z,20.01
2018-01-10T00:46:39.218Z,20.01
2018-01-10T00:47:37.978Z,20.02
2018-01-10T00:48:38.605Z,20.01
2018-01-10T00:49:37.700Z,20
2018-01-10T00:50:37.927Z,19.99
2018-01-10T00:51:37.673Z,20.01
2018-01-10T00:52:40.868Z,20.01
2018-01-10T00:53:37.722Z,20.01
2018-01-10T00:54:37.841Z,20
2018-01-10T00:55:38.017Z,20.01
2018-01-10T00:56:48.601Z,20
2018-01-10T00:57:39.172Z,19.99
2018-01-10T00:58:38.168Z,20
2018-01-10T00:59:38.230Z,20
2018-01-10T01:00:38.239Z,19.99
2018-01-10T01:01:37.596Z,20
2018-01-10T01:02:38.835Z,20
2018-01-10T01:03:38.307Z,20.01
2018-01-10T01:04:39.228Z,20.02
2018-01-10T01:05:37.690Z,20.02
2018-01-10T01:06:38.108Z,20.02
2018-01-10T01:07:37.742Z,20.01
2018-01-10T01:08:38.311Z,20.01
2018-01-10T01:09:38.181Z,20.01
2018-01-10T01:10:37.650Z,20.02
2018-01-10T01:11:37.831Z,20.03
2018-01-10T01:12:37.734Z,20.04
2018-01-10T01:13:38.056Z,20.03
2018-01-10T01:14:38.167Z,20.05
2018-01-10T01:15:37.792Z,20.04
2018-01-10T01:16:37.672Z,20.05
2018-01-10T01:17:38.162Z,20.04
2018-01-10T01:18:37.708Z,20.05
2018-01-10T01:19:37.653Z,20.03
2018-01-10T01:20:38.002Z,20.02
2018-01-10T01:21:40.363Z,20.03
2018-01-10T01:22:37.663Z,20.03
2018-01-10T01:23:37.617Z,20.03
2018-01-10T01:24:38.177Z,20.02
2018-01-10T01:25:39.074Z,20.03
2018-01-10T01:26:37.986Z,20.04
2018-01-10T01:27:38.206Z,20.03
2018-01-10T01:28:37.622Z,20.03
2018-01-10T01:29:39.018Z,20.03
2018-01-10T01:30:39.713Z,20.02
2018-01-10T01:31:38.493Z,20.02
2018-01-10T01:32:39.218Z,20.03
2018-01-10T01:33:41.484Z,20.04
2018-01-10T01:34:42.027Z,20.04
2018-01-10T01:35:42.201Z,20.03
2018-01-10T01:36:40.784Z,20.03
2018-01-10T01:37:39.024Z,20.03
2018-01-10T01:38:38.136Z,20.02
2018-01-10T01:39:37.750Z,20.04
2018-01-10T01:40:44.399Z,20.02
2018-01-10T01:41:37.845Z,20.02
2018-01-10T01:42:38.546Z,20.03
2018-01-10T01:43:41.130Z,20.04
2018-01-10T01:44:37.779Z,20.04
2018-01-10T01:45:37.771Z,20.05
2018-01-10T01:46:37.680Z,20.04
2018-01-10T01:47:37.880Z,20.05
2018-01-10T01:48:39.369Z,20.04
2018-01-10T01:49:43.396Z,20.02
2018-01-10T01:50:38.627Z,20.02
2018-01-10T01:51:37.808Z,20.04
2018-01-10T01:52:38.029Z,20.02
2018-01-10T01:53:41.300Z,20.01
2018-01-10T01:54:37.633Z,20.01
2018-01-10T01:55:37.685Z,20.01
2018-01-10T01:56:40.885Z,20.01
2018-01-10T01:57:43.698Z,20.02
2018-01-10T01:58:40.578Z,20.02
2018-01-10T01:59:37.654Z,20.02
2018-01-10T02:00:39.095Z,20.01
2018-01-10T02:01:42.286Z,20
2018-01-10T02:02:40.903Z,20
2018-01-10T02:03:38.675Z,20
2018-01-10T02:04:37.988Z,20
2018-01-10T02:05:38.985Z,20
2018-01-10T02:06:38.129Z,20
2018-01-10T02:07:37.905Z,19.99
2018-01-10T02:08:38.966Z,20
2018-01-10T02:09:39.356Z,19.99
2018-01-10T02:10:39.665Z,19.99
2018-01-10T02:11:37.743Z,19.99
2018-01-10T02:12:40.307Z,20
2018-01-10T02:13:38.300Z,19.98
2018-01-10T02:14:41.214Z,19.98
2018-01-10T02:15:38.714Z,19.99
2018-01-10T02:16:37.754Z,19.97
2018-01-10T02:17:38.091Z,19.97
2018-01-10T02:18:38.723Z,19.98
2018-01-10T02:19:38.511Z,19.97
2018-01-10T02:20:37.902Z,19.97
2018-01-10T02:21:37.708Z,19.97
2018-01-10T02:22:37.997Z,19.97
2018-01-10T02:23:39.622Z,19.97
2018-01-10T02:24:42.626Z,19.99
2018-01-10T02:25:42.452Z,19.98
2018-01-10T02:26:39.566Z,19.98
2018-01-10T02:27:37.676Z,19.99
2018-01-10T02:28:42.314Z,19.99
2018-01-10T02:29:37.668Z,19.97
2018-01-10T02:30:38.620Z,19.96
2018-01-10T02:31:41.254Z,19.97
2018-01-10T02:32:37.844Z,19.97
2018-01-10T02:33:38.742Z,19.97
2018-01-10T02:34:37.704Z,19.98
2018-01-10T02:35:37.876Z,19.97
2018-01-10T02:36:38.187Z,19.97
2018-01-10T02:37:37.773Z,19.97
2018-01-10T02:38:39.136Z,19.97
2018-01-10T02:39:37.725Z,19.97
2018-01-10T02:40:38.319Z,19.97
2018-01-10T02:41:45.386Z,19.97
2018-01-10T02:42:38.298Z,19.96
2018-01-10T02:43:37.710Z,19.96
2018-01-10T02:44:37.829Z,19.97
2018-01-10T02:45:37.835Z,19.96
2018-01-10T02:46:40.635Z,19.97
2018-01-10T02:47:37.782Z,19.98
2018-01-10T02:48:38.302Z,19.98
2018-01-10T02:49:38.467Z,19.97
2018-01-10T02:50:39.097Z,19.97
2018-01-10T02:51:38.199Z,19.97
2018-01-10T02:52:39.477Z,19.96
2018-01-10T02:53:38.186Z,19.96
2018-01-10T02:55:37.684Z,19.98
2018-01-10T02:56:44.809Z,19.99
2018-01-10T02:57:38.259Z,20.01
2018-01-10T02:58:37.726Z,20
2018-01-10T02:59:37.772Z,20.03
2018-01-10T03:00:39.242Z,20.04
2018-01-10T03:01:37.717Z,20.07
2018-01-10T03:02:38.904Z,20.09
2018-01-10T03:03:38.736Z,20.11
2018-01-10T03:04:39.091Z,20.13
2018-01-10T03:05:37.759Z,20.14
2018-01-10T03:06:38.377Z,20.15
2018-01-10T03:07:37.738Z,20.16
2018-01-10T03:08:38.141Z,20.17
2018-01-10T03:09:37.885Z,20.18
2018-01-10T03:10:37.719Z,20.19
2018-01-10T03:11:37.799Z,20.2
2018-01-10T03:12:37.864Z,20.2
2018-01-10T03:13:37.833Z,20.22
2018-01-10T03:14:38.301Z,20.23
2018-01-10T03:15:37.770Z,20.24
2018-01-10T03:16:37.729Z,20.25
2018-01-10T03:17:38.046Z,20.26
2018-01-10T03:18:43.189Z,20.26
2018-01-10T03:19:37.708Z,20.28
2018-01-10T03:20:40.294Z,20.28
2018-01-10T03:21:38.639Z,20.29
2018-01-10T03:22:38.171Z,20.3
2018-01-10T03:23:38.150Z,20.3
2018-01-10T03:24:38.109Z,20.31
2018-01-10T03:25:37.759Z,20.32
2018-01-10T03:26:37.815Z,20.33
2018-01-10T03:27:40.676Z,20.34
2018-01-10T03:28:37.725Z,20.34
2018-01-10T03:29:37.710Z,20.35
2018-01-10T03:30:38.051Z,20.36
2018-01-10T03:31:37.741Z,20.36
2018-01-10T03:32:38.462Z,20.37
2018-01-10T03:33:41.016Z,20.38
2018-01-10T03:34:37.761Z,20.38
2018-01-10T03:35:38.128Z,20.39
2018-01-10T03:36:39.622Z,20.39
2018-01-10T03:37:38.676Z,20.39
2018-01-10T03:38:37.898Z,20.41
2018-01-10T03:39:37.757Z,20.4
2018-01-10T03:40:37.957Z,20.41
2018-01-10T03:41:38.183Z,20.42
2018-01-10T03:42:39.777Z,20.42
2018-01-10T03:43:40.838Z,20.44
2018-01-10T03:44:38.688Z,20.44
2018-01-10T03:45:37.740Z,20.44
2018-01-10T03:46:37.743Z,20.44
2018-01-10T03:47:37.967Z,20.45
2018-01-10T03:48:38.425Z,20.43
2018-01-10T03:49:39.880Z,20.45
2018-01-10T03:50:38.238Z,20.45
2018-01-10T03:51:38.619Z,20.46
2018-01-10T03:52:38.412Z,20.46
2018-01-10T03:53:40.900Z,20.47
2018-01-10T03:54:38.260Z,20.45
2018-01-10T03:55:38.075Z,20.46
2018-01-10T03:56:38.679Z,20.47
2018-01-10T03:57:39.225Z,20.47
2018-01-10T03:58:37.755Z,20.49
2018-01-10T03:59:39.949Z,20.51
2018-01-10T04:00:38.098Z,20.51
2018-01-10T04:01:37.752Z,20.52
2018-01-10T04:02:37.805Z,20.51
2018-01-10T04:03:38.435Z,20.52
2018-01-10T04:04:37.773Z,20.55
2018-01-10T04:05:38.101Z,20.56
2018-01-10T04:06:38.228Z,20.56
2018-01-10T04:07:37.740Z,20.56
2018-01-10T04:08:38.971Z,20.55
2018-01-10T04:09:38.494Z,20.55
2018-01-10T04:10:37.747Z,20.54
2018-01-10T04:11:37.746Z,20.54
2018-01-10T04:12:39.560Z,20.53
2018-01-10T04:13:37.747Z,20.53
2018-01-10T04:14:38.179Z,20.52
2018-01-10T04:15:38.879Z,20.5
2018-01-10T04:16:38.587Z,20.51
2018-01-10T04:17:38.391Z,20.52
2018-01-10T04:18:37.812Z,20.51
2018-01-10T04:19:37.757Z,20.51
2018-01-10T04:20:38.731Z,20.52
2018-01-10T04:21:38.287Z,20.52
2018-01-10T04:22:37.954Z,20.51
2018-01-10T04:23:39.229Z,20.5
2018-01-10T04:24:39.837Z,20.48
2018-01-10T04:25:37.758Z,20.47
2018-01-10T04:26:39.081Z,20.47
2018-01-10T04:27:39.748Z,20.46
2018-01-10T04:28:38.337Z,20.44
2018-01-10T04:29:38.233Z,20.45
2018-01-10T04:30:38.672Z,20.43
2018-01-10T04:31:38.593Z,20.41
2018-01-10T04:32:38.199Z,20.4
2018-01-10T04:33:38.419Z,20.38
2018-01-10T04:34:38.831Z,20.37
2018-01-10T04:35:39.347Z,20.35
2018-01-10T04:36:38.770Z,20.35
2018-01-10T04:37:38.048Z,20.33
2018-01-10T04:38:38.141Z,20.32
2018-01-10T04:39:38.249Z,20.31
2018-01-10T04:40:39.146Z,20.31
2018-01-10T04:41:38.271Z,20.29
2018-01-10T04:42:38.170Z,20.29
2018-01-10T04:43:41.201Z,20.29
2018-01-10T04:44:38.942Z,20.28
2018-01-10T04:45:38.968Z,20.28
2018-01-10T04:46:39.214Z,20.38
2018-01-10T04:47:37.885Z,20.46
2018-01-10T04:48:37.764Z,20.51
2018-01-10T04:49:37.819Z,20.44
2018-01-10T04:50:38.169Z,20.44
2018-01-10T04:51:38.423Z,20.44
2018-01-10T04:52:38.399Z,20.47
2018-01-10T04:53:38.755Z,20.5
2018-01-10T04:54:40.611Z,20.44
